sensor_id;sensor_type;location;lat;lon;timestamp;P1;durP1;ratioP1;P2;durP2;ratioP2
51292;SDS011;37377;45.186;9.778;2023-02-02T00:01:13;16.67;;;4.15;;
51292;SDS011;37377;45.186;9.778;2023-02-02T00:03:40;15.48;;;4.18;;
51292;SDS011;37377;45.186;9.778;2023-02-02T00:06:07;24.33;;;4.45;;
51292;SDS011;37377;45.186;9.778;2023-02-02T00:08:34;15.05;;;4.22;;
51292;SDS011;37377;45.186;9.778;2023-02-02T00:11:02;18.15;;;4.22;;
51292;SDS011;37377;45.186;9.778;2023-02-02T00:13:29;7.30;;;4.75;;
51292;SDS011;37377;45.186;9.778;2023-02-02T00:15:56;18.23;;;4.80;;
51292;SDS011;37377;45.186;9.778;2023-02-02T00:18:22;12.80;;;4.32;;
51292;SDS011;37377;45.186;9.778;2023-02-02T00:20:49;15.95;;;4.47;;
51292;SDS011;37377;45.186;9.778;2023-02-02T00:23:16;16.95;;;4.28;;
51292;SDS011;37377;45.186;9.778;2023-02-02T00:25:43;15.80;;;4.78;;
51292;SDS011;37377;45.186;9.778;2023-02-02T00:28:09;8.50;;;3.65;;
51292;SDS011;37377;45.186;9.778;2023-02-02T00:30:36;14.45;;;4.55;;
51292;SDS011;37377;45.186;9.778;2023-02-02T00:33:04;17.33;;;4.07;;
51292;SDS011;37377;45.186;9.778;2023-02-02T00:35:30;11.00;;;3.92;;
51292;SDS011;37377;45.186;9.778;2023-02-02T00:37:57;15.15;;;5.13;;
51292;SDS011;37377;45.186;9.778;2023-02-02T00:40:24;13.55;;;3.88;;
51292;SDS011;37377;45.186;9.778;2023-02-02T00:42:50;11.88;;;3.83;;
51292;SDS011;37377;45.186;9.778;2023-02-02T00:45:18;13.68;;;4.97;;
51292;SDS011;37377;45.186;9.778;2023-02-02T00:47:47;20.15;;;4.78;;
51292;SDS011;37377;45.186;9.778;2023-02-02T00:50:15;10.65;;;3.40;;
51292;SDS011;37377;45.186;9.778;2023-02-02T00:52:42;15.05;;;3.72;;
51292;SDS011;37377;45.186;9.778;2023-02-02T00:55:09;16.15;;;4.47;;
51292;SDS011;37377;45.186;9.778;2023-02-02T00:57:36;14.73;;;3.78;;
51292;SDS011;37377;45.186;9.778;2023-02-02T01:00:03;13.15;;;3.67;;
51292;SDS011;37377;45.186;9.778;2023-02-02T01:02:33;9.23;;;3.90;;
51292;SDS011;37377;45.186;9.778;2023-02-02T01:05:00;12.18;;;3.75;;
51292;SDS011;37377;45.186;9.778;2023-02-02T01:07:27;13.85;;;3.85;;
51292;SDS011;37377;45.186;9.778;2023-02-02T01:09:55;12.13;;;3.50;;
51292;SDS011;37377;45.186;9.778;2023-02-02T01:12:22;10.77;;;3.15;;
51292;SDS011;37377;45.186;9.778;2023-02-02T01:14:49;12.32;;;3.47;;
51292;SDS011;37377;45.186;9.778;2023-02-02T01:17:16;11.23;;;3.75;;
51292;SDS011;37377;45.186;9.778;2023-02-02T01:19:43;15.95;;;3.85;;
51292;SDS011;37377;45.186;9.778;2023-02-02T01:22:10;8.75;;;3.05;;
51292;SDS011;37377;45.186;9.778;2023-02-02T01:24:37;12.32;;;3.75;;
51292;SDS011;37377;45.186;9.778;2023-02-02T01:27:04;14.30;;;3.63;;
51292;SDS011;37377;45.186;9.778;2023-02-02T01:29:30;7.07;;;3.03;;
51292;SDS011;37377;45.186;9.778;2023-02-02T01:31:57;17.90;;;4.07;;
51292;SDS011;37377;45.186;9.778;2023-02-02T01:34:24;17.50;;;3.85;;
51292;SDS011;37377;45.186;9.778;2023-02-02T01:36:51;12.93;;;3.65;;
51292;SDS011;37377;45.186;9.778;2023-02-02T01:39:18;16.90;;;4.22;;
51292;SDS011;37377;45.186;9.778;2023-02-02T01:41:45;20.02;;;5.35;;
51292;SDS011;37377;45.186;9.778;2023-02-02T01:46:58;18.95;;;3.78;;
51292;SDS011;37377;45.186;9.778;2023-02-02T01:49:25;28.13;;;4.18;;
51292;SDS011;37377;45.186;9.778;2023-02-02T01:51:54;12.98;;;3.70;;
51292;SDS011;37377;45.186;9.778;2023-02-02T01:54:30;15.77;;;3.90;;
51292;SDS011;37377;45.186;9.778;2023-02-02T01:57:01;10.13;;;3.63;;
51292;SDS011;37377;45.186;9.778;2023-02-02T01:59:29;16.13;;;4.70;;
51292;SDS011;37377;45.186;9.778;2023-02-02T02:01:57;17.40;;;5.20;;
51292;SDS011;37377;45.186;9.778;2023-02-02T02:04:24;9.15;;;4.28;;
51292;SDS011;37377;45.186;9.778;2023-02-02T02:06:52;15.52;;;4.30;;
51292;SDS011;37377;45.186;9.778;2023-02-02T02:09:19;16.48;;;4.53;;
51292;SDS011;37377;45.186;9.778;2023-02-02T02:11:46;9.88;;;4.35;;
51292;SDS011;37377;45.186;9.778;2023-02-02T02:14:13;15.27;;;4.95;;
51292;SDS011;37377;45.186;9.778;2023-02-02T02:17:13;20.90;;;4.82;;
51292;SDS011;37377;45.186;9.778;2023-02-02T02:19:56;14.95;;;4.57;;
51292;SDS011;37377;45.186;9.778;2023-02-02T02:36:17;12.55;;;4.97;;
51292;SDS011;37377;45.186;9.778;2023-02-02T02:38:55;21.67;;;4.18;;
51292;SDS011;37377;45.186;9.778;2023-02-02T02:41:25;9.52;;;4.05;;
51292;SDS011;37377;45.186;9.778;2023-02-02T02:44:01;22.63;;;4.72;;
51292;SDS011;37377;45.186;9.778;2023-02-02T02:46:29;13.70;;;4.13;;
51292;SDS011;37377;45.186;9.778;2023-02-02T02:48:57;10.80;;;3.60;;
51292;SDS011;37377;45.186;9.778;2023-02-02T02:54:14;13.25;;;3.95;;
51292;SDS011;37377;45.186;9.778;2023-02-02T02:59:20;7.50;;;3.85;;
51292;SDS011;37377;45.186;9.778;2023-02-02T03:04:27;9.85;;;4.05;;
51292;SDS011;37377;45.186;9.778;2023-02-02T03:06:59;12.75;;;4.47;;
51292;SDS011;37377;45.186;9.778;2023-02-02T03:09:29;15.50;;;4.30;;
51292;SDS011;37377;45.186;9.778;2023-02-02T03:12:00;22.00;;;4.95;;
51292;SDS011;37377;45.186;9.778;2023-02-02T03:14:27;16.52;;;5.03;;
51292;SDS011;37377;45.186;9.778;2023-02-02T03:16:54;15.93;;;5.10;;
51292;SDS011;37377;45.186;9.778;2023-02-02T03:19:21;12.50;;;4.97;;
51292;SDS011;37377;45.186;9.778;2023-02-02T03:21:47;12.43;;;4.43;;
51292;SDS011;37377;45.186;9.778;2023-02-02T03:24:14;13.95;;;5.00;;
51292;SDS011;37377;45.186;9.778;2023-02-02T03:26:41;12.82;;;5.38;;
51292;SDS011;37377;45.186;9.778;2023-02-02T03:29:09;14.90;;;5.07;;
51292;SDS011;37377;45.186;9.778;2023-02-02T03:31:36;13.82;;;5.38;;
51292;SDS011;37377;45.186;9.778;2023-02-02T03:34:03;9.90;;;5.22;;
51292;SDS011;37377;45.186;9.778;2023-02-02T03:36:30;12.35;;;5.05;;
51292;SDS011;37377;45.186;9.778;2023-02-02T03:38:56;12.40;;;4.25;;
51292;SDS011;37377;45.186;9.778;2023-02-02T03:41:23;15.88;;;5.38;;
51292;SDS011;37377;45.186;9.778;2023-02-02T03:43:50;18.05;;;5.28;;
51292;SDS011;37377;45.186;9.778;2023-02-02T03:46:17;13.95;;;5.32;;
51292;SDS011;37377;45.186;9.778;2023-02-02T03:48:44;10.02;;;5.38;;
51292;SDS011;37377;45.186;9.778;2023-02-02T03:51:12;19.48;;;4.93;;
51292;SDS011;37377;45.186;9.778;2023-02-02T03:53:39;9.07;;;4.35;;
51292;SDS011;37377;45.186;9.778;2023-02-02T03:56:09;13.65;;;4.88;;
51292;SDS011;37377;45.186;9.778;2023-02-02T03:58:36;14.45;;;4.78;;
51292;SDS011;37377;45.186;9.778;2023-02-02T04:01:07;12.13;;;4.50;;
51292;SDS011;37377;45.186;9.778;2023-02-02T04:03:36;16.40;;;4.40;;
51292;SDS011;37377;45.186;9.778;2023-02-02T04:06:02;15.20;;;5.65;;
51292;SDS011;37377;45.186;9.778;2023-02-02T04:08:30;19.85;;;4.95;;
51292;SDS011;37377;45.186;9.778;2023-02-02T04:10:57;12.38;;;4.70;;
51292;SDS011;37377;45.186;9.778;2023-02-02T04:13:26;11.80;;;5.40;;
51292;SDS011;37377;45.186;9.778;2023-02-02T04:15:59;9.48;;;5.05;;
51292;SDS011;37377;45.186;9.778;2023-02-02T04:18:26;12.60;;;4.97;;
51292;SDS011;37377;45.186;9.778;2023-02-02T04:20:57;11.63;;;5.20;;
51292;SDS011;37377;45.186;9.778;2023-02-02T04:23:24;13.73;;;4.80;;
51292;SDS011;37377;45.186;9.778;2023-02-02T04:25:51;11.98;;;4.75;;
51292;SDS011;37377;45.186;9.778;2023-02-02T04:28:18;24.23;;;5.25;;
51292;SDS011;37377;45.186;9.778;2023-02-02T04:30:45;13.30;;;6.00;;
51292;SDS011;37377;45.186;9.778;2023-02-02T04:33:12;11.57;;;4.47;;
51292;SDS011;37377;45.186;9.778;2023-02-02T04:35:38;13.68;;;4.80;;
51292;SDS011;37377;45.186;9.778;2023-02-02T04:38:05;11.82;;;4.85;;
51292;SDS011;37377;45.186;9.778;2023-02-02T04:40:32;12.75;;;4.95;;
51292;SDS011;37377;45.186;9.778;2023-02-02T04:42:59;8.25;;;4.90;;
51292;SDS011;37377;45.186;9.778;2023-02-02T04:45:26;15.57;;;5.53;;
51292;SDS011;37377;45.186;9.778;2023-02-02T04:47:54;13.13;;;4.90;;
51292;SDS011;37377;45.186;9.778;2023-02-02T04:50:20;12.10;;;5.32;;
51292;SDS011;37377;45.186;9.778;2023-02-02T04:52:47;13.85;;;4.20;;
51292;SDS011;37377;45.186;9.778;2023-02-02T04:55:14;11.88;;;4.80;;
51292;SDS011;37377;45.186;9.778;2023-02-02T04:57:41;18.05;;;4.95;;
51292;SDS011;37377;45.186;9.778;2023-02-02T05:00:09;10.45;;;4.50;;
51292;SDS011;37377;45.186;9.778;2023-02-02T05:02:37;13.00;;;5.30;;
51292;SDS011;37377;45.186;9.778;2023-02-02T05:05:05;17.17;;;7.07;;
51292;SDS011;37377;45.186;9.778;2023-02-02T05:07:32;12.00;;;5.65;;
51292;SDS011;37377;45.186;9.778;2023-02-02T05:09:59;12.40;;;7.18;;
51292;SDS011;37377;45.186;9.778;2023-02-02T05:12:25;21.38;;;4.93;;
51292;SDS011;37377;45.186;9.778;2023-02-02T05:14:52;11.35;;;5.32;;
51292;SDS011;37377;45.186;9.778;2023-02-02T05:17:19;7.50;;;4.68;;
51292;SDS011;37377;45.186;9.778;2023-02-02T05:19:46;10.48;;;4.65;;
51292;SDS011;37377;45.186;9.778;2023-02-02T05:22:12;8.80;;;4.20;;
51292;SDS011;37377;45.186;9.778;2023-02-02T05:24:39;15.05;;;5.00;;
51292;SDS011;37377;45.186;9.778;2023-02-02T05:27:06;13.45;;;5.50;;
51292;SDS011;37377;45.186;9.778;2023-02-02T05:29:33;20.40;;;7.30;;
51292;SDS011;37377;45.186;9.778;2023-02-02T05:32:00;12.68;;;5.93;;
51292;SDS011;37377;45.186;9.778;2023-02-02T05:34:27;17.60;;;7.32;;
51292;SDS011;37377;45.186;9.778;2023-02-02T05:36:55;21.67;;;7.07;;
51292;SDS011;37377;45.186;9.778;2023-02-02T05:39:23;21.75;;;7.15;;
51292;SDS011;37377;45.186;9.778;2023-02-02T05:41:49;14.43;;;7.60;;
51292;SDS011;37377;45.186;9.778;2023-02-02T05:44:16;16.23;;;7.18;;
51292;SDS011;37377;45.186;9.778;2023-02-02T05:46:43;11.70;;;7.22;;
51292;SDS011;37377;45.186;9.778;2023-02-02T05:49:12;17.20;;;6.32;;
51292;SDS011;37377;45.186;9.778;2023-02-02T05:51:39;15.82;;;8.02;;
51292;SDS011;37377;45.186;9.778;2023-02-02T05:54:07;15.10;;;7.38;;
51292;SDS011;37377;45.186;9.778;2023-02-02T05:56:34;17.65;;;8.82;;
51292;SDS011;37377;45.186;9.778;2023-02-02T05:59:00;18.67;;;8.43;;
51292;SDS011;37377;45.186;9.778;2023-02-02T06:01:30;21.88;;;9.50;;
51292;SDS011;37377;45.186;9.778;2023-02-02T06:03:57;22.88;;;8.82;;
51292;SDS011;37377;45.186;9.778;2023-02-02T06:06:24;25.10;;;8.68;;
51292;SDS011;37377;45.186;9.778;2023-02-02T06:08:50;18.60;;;9.13;;
51292;SDS011;37377;45.186;9.778;2023-02-02T06:11:17;19.85;;;9.35;;
51292;SDS011;37377;45.186;9.778;2023-02-02T06:13:44;23.33;;;10.10;;
51292;SDS011;37377;45.186;9.778;2023-02-02T06:16:11;16.02;;;9.80;;
51292;SDS011;37377;45.186;9.778;2023-02-02T06:18:38;22.30;;;10.20;;
51292;SDS011;37377;45.186;9.778;2023-02-02T06:21:05;20.85;;;11.73;;
51292;SDS011;37377;45.186;9.778;2023-02-02T06:23:32;21.25;;;10.48;;
51292;SDS011;37377;45.186;9.778;2023-02-02T06:25:59;22.95;;;12.60;;
51292;SDS011;37377;45.186;9.778;2023-02-02T06:28:26;26.52;;;11.85;;
51292;SDS011;37377;45.186;9.778;2023-02-02T06:30:52;27.45;;;14.10;;
51292;SDS011;37377;45.186;9.778;2023-02-02T06:33:19;27.88;;;13.88;;
51292;SDS011;37377;45.186;9.778;2023-02-02T06:35:46;31.15;;;15.90;;
51292;SDS011;37377;45.186;9.778;2023-02-02T06:38:14;36.67;;;16.80;;
51292;SDS011;37377;45.186;9.778;2023-02-02T06:40:41;23.77;;;15.40;;
51292;SDS011;37377;45.186;9.778;2023-02-02T06:43:08;30.90;;;16.05;;
51292;SDS011;37377;45.186;9.778;2023-02-02T06:45:34;32.30;;;15.88;;
51292;SDS011;37377;45.186;9.778;2023-02-02T06:48:05;39.05;;;16.13;;
51292;SDS011;37377;45.186;9.778;2023-02-02T06:50:36;30.83;;;15.77;;
51292;SDS011;37377;45.186;9.778;2023-02-02T06:53:04;33.65;;;14.80;;
51292;SDS011;37377;45.186;9.778;2023-02-02T06:55:31;34.17;;;16.23;;
51292;SDS011;37377;45.186;9.778;2023-02-02T06:57:58;29.05;;;15.35;;
51292;SDS011;37377;45.186;9.778;2023-02-02T07:00:27;32.40;;;15.57;;
51292;SDS011;37377;45.186;9.778;2023-02-02T07:02:55;32.95;;;16.40;;
51292;SDS011;37377;45.186;9.778;2023-02-02T07:05:22;33.50;;;16.33;;
51292;SDS011;37377;45.186;9.778;2023-02-02T07:07:50;32.15;;;15.95;;
51292;SDS011;37377;45.186;9.778;2023-02-02T07:10:20;42.30;;;15.73;;
51292;SDS011;37377;45.186;9.778;2023-02-02T07:13:12;34.85;;;14.73;;
51292;SDS011;37377;45.186;9.778;2023-02-02T07:15:39;25.83;;;14.70;;
51292;SDS011;37377;45.186;9.778;2023-02-02T07:18:06;30.60;;;16.27;;
51292;SDS011;37377;45.186;9.778;2023-02-02T07:20:32;27.83;;;14.75;;
51292;SDS011;37377;45.186;9.778;2023-02-02T07:23:01;31.15;;;16.83;;
51292;SDS011;37377;45.186;9.778;2023-02-02T07:25:28;32.83;;;16.55;;
51292;SDS011;37377;45.186;9.778;2023-02-02T07:27:54;28.05;;;15.65;;
51292;SDS011;37377;45.186;9.778;2023-02-02T07:30:21;32.33;;;17.30;;
51292;SDS011;37377;45.186;9.778;2023-02-02T07:32:49;33.95;;;17.27;;
51292;SDS011;37377;45.186;9.778;2023-02-02T07:35:16;36.20;;;19.55;;
51292;SDS011;37377;45.186;9.778;2023-02-02T07:37:43;34.80;;;18.35;;
51292;SDS011;37377;45.186;9.778;2023-02-02T07:40:10;30.98;;;18.20;;
51292;SDS011;37377;45.186;9.778;2023-02-02T07:42:37;30.05;;;18.00;;
51292;SDS011;37377;45.186;9.778;2023-02-02T07:45:04;37.65;;;17.92;;
51292;SDS011;37377;45.186;9.778;2023-02-02T07:47:57;34.90;;;17.88;;
51292;SDS011;37377;45.186;9.778;2023-02-02T07:50:25;24.00;;;16.92;;
51292;SDS011;37377;45.186;9.778;2023-02-02T07:52:53;29.08;;;17.48;;
51292;SDS011;37377;45.186;9.778;2023-02-02T07:55:20;27.17;;;17.23;;
51292;SDS011;37377;45.186;9.778;2023-02-02T07:57:47;28.70;;;18.10;;
51292;SDS011;37377;45.186;9.778;2023-02-02T08:00:17;32.05;;;18.38;;
51292;SDS011;37377;45.186;9.778;2023-02-02T08:02:47;37.22;;;19.58;;
51292;SDS011;37377;45.186;9.778;2023-02-02T08:05:14;36.22;;;18.70;;
51292;SDS011;37377;45.186;9.778;2023-02-02T08:07:41;29.95;;;17.52;;
51292;SDS011;37377;45.186;9.778;2023-02-02T08:10:10;31.02;;;18.20;;
51292;SDS011;37377;45.186;9.778;2023-02-02T08:12:37;33.13;;;18.08;;
51292;SDS011;37377;45.186;9.778;2023-02-02T08:15:05;47.53;;;22.15;;
51292;SDS011;37377;45.186;9.778;2023-02-02T08:17:34;34.72;;;20.58;;
51292;SDS011;37377;45.186;9.778;2023-02-02T08:20:03;31.05;;;18.42;;
51292;SDS011;37377;45.186;9.778;2023-02-02T08:22:30;25.15;;;17.27;;
51292;SDS011;37377;45.186;9.778;2023-02-02T08:24:59;30.10;;;17.70;;
51292;SDS011;37377;45.186;9.778;2023-02-02T08:27:26;28.08;;;16.88;;
51292;SDS011;37377;45.186;9.778;2023-02-02T08:29:53;39.20;;;17.52;;
51292;SDS011;37377;45.186;9.778;2023-02-02T08:32:20;30.10;;;15.25;;
51292;SDS011;37377;45.186;9.778;2023-02-02T08:34:48;29.77;;;14.45;;
51292;SDS011;37377;45.186;9.778;2023-02-02T08:37:15;27.77;;;14.38;;
51292;SDS011;37377;45.186;9.778;2023-02-02T08:39:41;27.50;;;14.70;;
51292;SDS011;37377;45.186;9.778;2023-02-02T08:42:09;24.52;;;14.45;;
51292;SDS011;37377;45.186;9.778;2023-02-02T08:44:36;29.98;;;15.70;;
51292;SDS011;37377;45.186;9.778;2023-02-02T08:47:23;23.90;;;14.77;;
51292;SDS011;37377;45.186;9.778;2023-02-02T08:49:50;27.00;;;14.45;;
51292;SDS011;37377;45.186;9.778;2023-02-02T08:52:17;30.83;;;15.27;;
51292;SDS011;37377;45.186;9.778;2023-02-02T08:54:45;25.83;;;13.02;;
51292;SDS011;37377;45.186;9.778;2023-02-02T08:57:12;32.90;;;14.05;;
51292;SDS011;37377;45.186;9.778;2023-02-02T08:59:39;32.58;;;16.05;;
51292;SDS011;37377;45.186;9.778;2023-02-02T09:02:09;36.28;;;14.25;;
51292;SDS011;37377;45.186;9.778;2023-02-02T09:04:36;22.95;;;13.65;;
51292;SDS011;37377;45.186;9.778;2023-02-02T09:07:03;41.95;;;15.40;;
51292;SDS011;37377;45.186;9.778;2023-02-02T09:09:31;42.78;;;14.65;;
51292;SDS011;37377;45.186;9.778;2023-02-02T09:11:58;23.98;;;14.13;;
51292;SDS011;37377;45.186;9.778;2023-02-02T09:14:34;24.20;;;13.55;;
51292;SDS011;37377;45.186;9.778;2023-02-02T09:17:01;25.45;;;14.38;;
51292;SDS011;37377;45.186;9.778;2023-02-02T09:19:28;26.73;;;13.45;;
51292;SDS011;37377;45.186;9.778;2023-02-02T09:21:55;32.80;;;15.30;;
51292;SDS011;37377;45.186;9.778;2023-02-02T09:24:22;26.23;;;13.52;;
51292;SDS011;37377;45.186;9.778;2023-02-02T09:26:49;33.03;;;13.48;;
51292;SDS011;37377;45.186;9.778;2023-02-02T09:29:16;36.35;;;16.08;;
51292;SDS011;37377;45.186;9.778;2023-02-02T09:31:44;32.38;;;11.88;;
51292;SDS011;37377;45.186;9.778;2023-02-02T09:34:11;50.33;;;12.35;;
51292;SDS011;37377;45.186;9.778;2023-02-02T09:36:42;33.50;;;11.88;;
51292;SDS011;37377;45.186;9.778;2023-02-02T09:39:13;43.97;;;12.70;;
51292;SDS011;37377;45.186;9.778;2023-02-02T09:52:07;18.25;;;10.05;;
51292;SDS011;37377;45.186;9.778;2023-02-02T09:54:39;30.15;;;12.27;;
51292;SDS011;37377;45.186;9.778;2023-02-02T09:57:12;23.13;;;12.40;;
51292;SDS011;37377;45.186;9.778;2023-02-02T09:59:41;26.02;;;10.23;;
51292;SDS011;37377;45.186;9.778;2023-02-02T10:02:15;19.92;;;9.85;;
51292;SDS011;37377;45.186;9.778;2023-02-02T10:04:44;28.38;;;10.95;;
51292;SDS011;37377;45.186;9.778;2023-02-02T10:07:13;22.42;;;9.75;;
51292;SDS011;37377;45.186;9.778;2023-02-02T10:09:50;24.58;;;10.77;;
51292;SDS011;37377;45.186;9.778;2023-02-02T10:15:08;28.67;;;9.65;;
51292;SDS011;37377;45.186;9.778;2023-02-02T10:20:17;32.63;;;9.18;;
51292;SDS011;37377;45.186;9.778;2023-02-02T10:22:46;38.40;;;14.40;;
51292;SDS011;37377;45.186;9.778;2023-02-02T10:25:13;23.42;;;8.85;;
51292;SDS011;37377;45.186;9.778;2023-02-02T10:27:42;26.65;;;8.00;;
51292;SDS011;37377;45.186;9.778;2023-02-02T10:30:17;29.58;;;10.85;;
51292;SDS011;37377;45.186;9.778;2023-02-02T10:32:46;38.47;;;9.10;;
51292;SDS011;37377;45.186;9.778;2023-02-02T10:37:58;48.60;;;9.60;;
51292;SDS011;37377;45.186;9.778;2023-02-02T10:40:35;32.50;;;8.27;;
51292;SDS011;37377;45.186;9.778;2023-02-02T10:48:25;21.45;;;8.43;;
51292;SDS011;37377;45.186;9.778;2023-02-02T10:50:56;25.67;;;9.23;;
51292;SDS011;37377;45.186;9.778;2023-02-02T10:53:26;23.20;;;8.55;;
51292;SDS011;37377;45.186;9.778;2023-02-02T10:55:55;28.17;;;10.10;;
51292;SDS011;37377;45.186;9.778;2023-02-02T10:58:31;16.70;;;8.05;;
51292;SDS011;37377;45.186;9.778;2023-02-02T11:01:01;26.98;;;10.55;;
51292;SDS011;37377;45.186;9.778;2023-02-02T11:03:31;17.02;;;8.85;;
51292;SDS011;37377;45.186;9.778;2023-02-02T11:05:58;29.08;;;9.27;;
51292;SDS011;37377;45.186;9.778;2023-02-02T11:08:44;14.25;;;8.25;;
51292;SDS011;37377;45.186;9.778;2023-02-02T11:11:17;17.83;;;8.68;;
51292;SDS011;37377;45.186;9.778;2023-02-02T11:13:59;19.20;;;8.63;;
51292;SDS011;37377;45.186;9.778;2023-02-02T11:16:28;28.63;;;10.05;;
51292;SDS011;37377;45.186;9.778;2023-02-02T11:21:41;21.48;;;11.23;;
51292;SDS011;37377;45.186;9.778;2023-02-02T11:24:20;17.60;;;9.57;;
51292;SDS011;37377;45.186;9.778;2023-02-02T11:26:50;22.70;;;8.32;;
51292;SDS011;37377;45.186;9.778;2023-02-02T11:29:24;15.30;;;7.95;;
51292;SDS011;37377;45.186;9.778;2023-02-02T11:31:52;14.77;;;8.73;;
51292;SDS011;37377;45.186;9.778;2023-02-02T11:34:26;13.15;;;8.20;;
51292;SDS011;37377;45.186;9.778;2023-02-02T11:37:19;11.57;;;7.13;;
51292;SDS011;37377;45.186;9.778;2023-02-02T11:39:41;27.65;;;9.15;;
51292;SDS011;37377;45.186;9.778;2023-02-02T11:44:38;21.38;;;9.40;;
51292;SDS011;37377;45.186;9.778;2023-02-02T11:47:06;21.00;;;9.68;;
51292;SDS011;37377;45.186;9.778;2023-02-02T11:49:36;18.60;;;9.80;;
51292;SDS011;37377;45.186;9.778;2023-02-02T11:52:05;32.85;;;10.40;;
51292;SDS011;37377;45.186;9.778;2023-02-02T11:54:34;27.45;;;12.02;;
51292;SDS011;37377;45.186;9.778;2023-02-02T11:57:02;20.65;;;11.02;;
51292;SDS011;37377;45.186;9.778;2023-02-02T12:02:22;11.63;;;4.70;;
51292;SDS011;37377;45.186;9.778;2023-02-02T12:08:02;18.00;;;7.25;;
51292;SDS011;37377;45.186;9.778;2023-02-02T12:10:33;32.35;;;15.10;;
51292;SDS011;37377;45.186;9.778;2023-02-02T12:21:33;16.08;;;5.72;;
51292;SDS011;37377;45.186;9.778;2023-02-02T12:26:35;10.95;;;4.93;;
51292;SDS011;37377;45.186;9.778;2023-02-02T12:35:00;17.00;;;5.43;;
51292;SDS011;37377;45.186;9.778;2023-02-02T12:37:34;17.75;;;5.28;;
51292;SDS011;37377;45.186;9.778;2023-02-02T12:40:18;10.75;;;4.85;;
51292;SDS011;37377;45.186;9.778;2023-02-02T12:50:30;11.68;;;3.88;;
51292;SDS011;37377;45.186;9.778;2023-02-02T12:55:43;11.80;;;4.78;;
51292;SDS011;37377;45.186;9.778;2023-02-02T13:00:56;16.25;;;3.90;;
51292;SDS011;37377;45.186;9.778;2023-02-02T13:06:10;15.00;;;3.90;;
51292;SDS011;37377;45.186;9.778;2023-02-02T13:11:16;7.35;;;2.90;;
51292;SDS011;37377;45.186;9.778;2023-02-02T13:14:08;8.55;;;2.50;;
51292;SDS011;37377;45.186;9.778;2023-02-02T13:16:37;14.52;;;3.55;;
51292;SDS011;37377;45.186;9.778;2023-02-02T13:19:07;5.70;;;3.35;;
51292;SDS011;37377;45.186;9.778;2023-02-02T13:21:36;6.40;;;3.17;;
51292;SDS011;37377;45.186;9.778;2023-02-02T13:24:06;15.07;;;3.63;;
51292;SDS011;37377;45.186;9.778;2023-02-02T13:26:35;10.00;;;3.05;;
51292;SDS011;37377;45.186;9.778;2023-02-02T13:29:05;9.32;;;4.07;;
51292;SDS011;37377;45.186;9.778;2023-02-02T13:31:42;5.32;;;2.30;;
51292;SDS011;37377;45.186;9.778;2023-02-02T13:34:24;7.90;;;2.90;;
51292;SDS011;37377;45.186;9.778;2023-02-02T13:36:53;7.63;;;2.42;;
51292;SDS011;37377;45.186;9.778;2023-02-02T13:39:26;4.93;;;2.45;;
51292;SDS011;37377;45.186;9.778;2023-02-02T13:41:56;10.07;;;3.22;;
51292;SDS011;37377;45.186;9.778;2023-02-02T13:45:08;8.73;;;3.50;;
51292;SDS011;37377;45.186;9.778;2023-02-02T13:47:22;3.90;;;2.85;;
51292;SDS011;37377;45.186;9.778;2023-02-02T13:49:53;8.98;;;2.90;;
51292;SDS011;37377;45.186;9.778;2023-02-02T14:02:30;7.38;;;2.60;;
51292;SDS011;37377;45.186;9.778;2023-02-02T14:04:59;5.75;;;2.67;;
51292;SDS011;37377;45.186;9.778;2023-02-02T14:07:29;14.10;;;3.67;;
51292;SDS011;37377;45.186;9.778;2023-02-02T14:09:57;10.80;;;3.47;;
51292;SDS011;37377;45.186;9.778;2023-02-02T14:12:28;5.45;;;3.40;;
51292;SDS011;37377;45.186;9.778;2023-02-02T14:14:56;8.77;;;3.50;;
51292;SDS011;37377;45.186;9.778;2023-02-02T14:19:59;7.38;;;2.88;;
51292;SDS011;37377;45.186;9.778;2023-02-02T14:22:40;9.68;;;3.60;;
51292;SDS011;37377;45.186;9.778;2023-02-02T14:27:56;5.68;;;4.18;;
51292;SDS011;37377;45.186;9.778;2023-02-02T14:30:25;7.50;;;2.80;;
51292;SDS011;37377;45.186;9.778;2023-02-02T14:32:52;7.85;;;4.13;;
51292;SDS011;37377;45.186;9.778;2023-02-02T14:37:59;9.07;;;3.55;;
51292;SDS011;37377;45.186;9.778;2023-02-02T14:43:32;10.00;;;5.22;;
51292;SDS011;37377;45.186;9.778;2023-02-02T14:48:40;8.70;;;5.15;;
51292;SDS011;37377;45.186;9.778;2023-02-02T14:51:24;8.57;;;3.60;;
51292;SDS011;37377;45.186;9.778;2023-02-02T14:54:02;11.23;;;6.18;;
51292;SDS011;37377;45.186;9.778;2023-02-02T14:56:42;12.40;;;4.22;;
51292;SDS011;37377;45.186;9.778;2023-02-02T14:59:23;9.20;;;3.45;;
51292;SDS011;37377;45.186;9.778;2023-02-02T15:02:01;5.80;;;3.80;;
51292;SDS011;37377;45.186;9.778;2023-02-02T15:04:31;21.23;;;5.10;;
51292;SDS011;37377;45.186;9.778;2023-02-02T15:09:44;27.98;;;9.02;;
51292;SDS011;37377;45.186;9.778;2023-02-02T15:12:19;20.67;;;8.93;;
51292;SDS011;37377;45.186;9.778;2023-02-02T15:20:21;10.93;;;4.90;;
51292;SDS011;37377;45.186;9.778;2023-02-02T15:26:02;10.82;;;4.55;;
51292;SDS011;37377;45.186;9.778;2023-02-02T15:30:55;11.00;;;4.93;;
51292;SDS011;37377;45.186;9.778;2023-02-02T15:33:28;24.73;;;6.10;;
51292;SDS011;37377;45.186;9.778;2023-02-02T15:35:56;17.08;;;4.88;;
51292;SDS011;37377;45.186;9.778;2023-02-02T15:38:29;17.63;;;5.55;;
51292;SDS011;37377;45.186;9.778;2023-02-02T15:41:14;12.30;;;4.22;;
51292;SDS011;37377;45.186;9.778;2023-02-02T15:43:43;18.02;;;5.30;;
51292;SDS011;37377;45.186;9.778;2023-02-02T15:46:12;21.02;;;6.32;;
51292;SDS011;37377;45.186;9.778;2023-02-02T15:48:39;11.43;;;5.07;;
51292;SDS011;37377;45.186;9.778;2023-02-02T15:51:12;8.25;;;4.25;;
51292;SDS011;37377;45.186;9.778;2023-02-02T15:56:16;12.05;;;4.25;;
51292;SDS011;37377;45.186;9.778;2023-02-02T15:58:46;7.82;;;3.83;;
51292;SDS011;37377;45.186;9.778;2023-02-02T16:01:14;31.52;;;5.32;;
51292;SDS011;37377;45.186;9.778;2023-02-02T16:06:28;15.02;;;5.50;;
51292;SDS011;37377;45.186;9.778;2023-02-02T16:08:55;17.35;;;5.93;;
51292;SDS011;37377;45.186;9.778;2023-02-02T16:11:22;17.95;;;5.07;;
51292;SDS011;37377;45.186;9.778;2023-02-02T16:13:59;11.75;;;6.43;;
51292;SDS011;37377;45.186;9.778;2023-02-02T16:16:29;14.63;;;7.32;;
51292;SDS011;37377;45.186;9.778;2023-02-02T16:19:04;15.07;;;5.22;;
51292;SDS011;37377;45.186;9.778;2023-02-02T16:21:31;16.77;;;8.73;;
51292;SDS011;37377;45.186;9.778;2023-02-02T16:23:58;11.15;;;6.75;;
51292;SDS011;37377;45.186;9.778;2023-02-02T16:26:26;17.17;;;5.97;;
51292;SDS011;37377;45.186;9.778;2023-02-02T16:28:54;12.65;;;4.90;;
51292;SDS011;37377;45.186;9.778;2023-02-02T16:31:21;14.68;;;5.72;;
51292;SDS011;37377;45.186;9.778;2023-02-02T16:33:48;11.15;;;4.88;;
51292;SDS011;37377;45.186;9.778;2023-02-02T16:38:52;16.75;;;5.88;;
51292;SDS011;37377;45.186;9.778;2023-02-02T16:43:52;12.60;;;4.78;;
51292;SDS011;37377;45.186;9.778;2023-02-02T16:46:40;14.27;;;5.88;;
51292;SDS011;37377;45.186;9.778;2023-02-02T16:49:13;17.33;;;5.95;;
51292;SDS011;37377;45.186;9.778;2023-02-02T16:51:41;19.75;;;6.47;;
51292;SDS011;37377;45.186;9.778;2023-02-02T16:56:36;15.88;;;6.07;;
51292;SDS011;37377;45.186;9.778;2023-02-02T16:59:15;9.43;;;5.75;;
51292;SDS011;37377;45.186;9.778;2023-02-02T17:01:43;23.52;;;8.10;;
51292;SDS011;37377;45.186;9.778;2023-02-02T17:04:17;27.00;;;8.80;;
51292;SDS011;37377;45.186;9.778;2023-02-02T17:06:45;15.07;;;6.73;;
51292;SDS011;37377;45.186;9.778;2023-02-02T17:09:25;24.52;;;9.35;;
51292;SDS011;37377;45.186;9.778;2023-02-02T17:11:55;8.43;;;5.50;;